Time;durP1;ratioP1;P1;durP2;ratioP2;P2;SDS_P1;SDS_P2;PMS_P1;PMS_P2;Temp;Humidity;BMP_temperature;BMP_pressure;BME280_temperature;BME280_humidity;BME280_pressure;Samples;Min_cycle;Max_cycle;Signal;HPM_P1;HPM_P2
2023/07/02 00:00:10;;;;;;;3.55;2.67;;;17.90;99.90;;;;;;4966175;28;20206;-64
2023/07/02 00:02:37;;;;;;;3.20;2.75;;;17.80;99.90;;;;;;4998547;28;20678;-63
2023/07/02 00:05:06;;;;;;;4.70;3.05;;;17.80;99.90;;;;;;4966508;28;20217;-64
2023/07/02 00:07:35;;;;;;;4.95;3.22;;;17.80;99.90;;;;;;4965815;28;20228;-64
2023/07/02 00:10:03;;;;;;;4.18;2.78;;;17.80;99.90;;;;;;4966975;28;20733;-64
2023/07/02 00:12:31;;;;;;;3.15;2.55;;;17.80;99.90;;;;;;4962063;28;20209;-65
2023/07/02 00:14:58;;;;;;;4.30;2.90;;;17.90;99.90;;;;;;4967716;28;20198;-64
2023/07/02 00:17:25;;;;;;;4.00;3.20;;;17.90;99.90;;;;;;4968508;28;20209;-66
2023/07/02 00:19:52;;;;;;;6.00;3.40;;;17.80;99.90;;;;;;4980293;28;20214;-68
2023/07/02 00:22:19;;;;;;;4.03;3.60;;;17.70;99.90;;;;;;4978892;28;20225;-67
2023/07/02 00:24:47;;;;;;;5.78;3.50;;;17.60;99.90;;;;;;4965306;28;20532;-67
2023/07/02 00:27:14;;;;;;;6.75;3.10;;;17.70;99.90;;;;;;4963350;28;20202;-67
2023/07/02 00:29:41;;;;;;;6.68;3.50;;;17.60;99.90;;;;;;4960574;28;20560;-67
2023/07/02 00:32:08;;;;;;;6.15;3.47;;;17.60;99.90;;;;;;4967115;28;20289;-67
2023/07/02 00:34:35;;;;;;;4.22;2.83;;;17.60;99.90;;;;;;4965639;28;20717;-67
2023/07/02 00:37:02;;;;;;;3.20;2.90;;;17.60;99.90;;;;;;4979831;28;20204;-66
2023/07/02 00:39:30;;;;;;;4.47;3.00;;;17.50;99.90;;;;;;4962844;28;20277;-67
2023/07/02 00:42:04;;;;;;;3.28;2.97;;;17.50;99.90;;;;;;4968248;28;20659;-67
2023/07/02 00:44:31;;;;;;;6.18;3.95;;;17.50;99.90;;;;;;4978668;28;20212;-67
2023/07/02 00:46:58;;;;;;;5.90;3.13;;;17.50;99.90;;;;;;4981559;28;20792;-66
2023/07/02 00:49:27;;;;;;;4.70;3.70;;;17.50;99.90;;;;;;4964523;28;20273;-67
2023/07/02 00:51:55;;;;;;;5.18;3.53;;;17.50;99.90;;;;;;4964560;28;20652;-67
2023/07/02 00:54:22;;;;;;;3.30;3.00;;;17.50;99.90;;;;;;4952130;28;20234;-67
2023/07/02 00:56:50;;;;;;;5.63;3.45;;;17.50;99.90;;;;;;4963435;28;20190;-67
2023/07/02 00:59:17;;;;;;;4.35;3.38;;;17.40;99.90;;;;;;4996566;28;20293;-67
2023/07/02 01:01:49;;;;;;;6.60;4.00;;;17.50;99.90;;;;;;4965401;28;20206;-66
2023/07/02 01:04:19;;;;;;;3.90;2.78;;;17.40;99.90;;;;;;4985522;23;20222;-62
2023/07/02 01:06:46;;;;;;;3.08;2.75;;;17.40;99.90;;;;;;4965559;28;20198;-62
2023/07/02 01:09:13;;;;;;;3.67;3.03;;;17.40;99.90;;;;;;4966077;28;20198;-61
2023/07/02 01:11:45;;;;;;;5.28;2.90;;;17.50;99.90;;;;;;4964096;28;20665;-63
2023/07/02 01:14:39;;;;;;;5.32;2.75;;;17.50;99.90;;;;;;4961641;28;20210;-62
2023/07/02 01:17:07;;;;;;;3.13;2.60;;;17.40;99.90;;;;;;4955964;28;20194;-60
2023/07/02 01:19:52;;;;;;;3.17;2.78;;;17.40;99.90;;;;;;4967118;28;20186;-63
2023/07/02 01:22:22;;;;;;;6.00;2.67;;;17.40;99.90;;;;;;4964890;28;20230;-63
2023/07/02 01:24:51;;;;;;;7.57;3.03;;;17.40;99.90;;;;;;4964535;28;20205;-62
2023/07/02 01:27:18;;;;;;;3.95;2.67;;;17.40;99.90;;;;;;4964869;28;20229;-61
2023/07/02 01:29:47;;;;;;;3.88;2.80;;;17.40;99.90;;;;;;4960311;28;20209;-69
2023/07/02 01:32:14;;;;;;;7.80;2.85;;;17.40;99.90;;;;;;4969915;28;20190;-70
2023/07/02 01:34:48;;;;;;;5.38;3.00;;;17.50;99.90;;;;;;4968618;28;20245;-71
2023/07/02 01:37:19;;;;;;;3.92;2.90;;;17.50;99.90;;;;;;4965690;28;20196;-72
2023/07/02 01:39:46;;;;;;;5.45;2.90;;;17.40;99.90;;;;;;4966428;28;20658;-71
2023/07/02 01:42:18;;;;;;;3.88;3.08;;;17.40;99.90;;;;;;4981936;28;20211;-72
2023/07/02 01:44:48;;;;;;;4.45;3.00;;;17.30;99.90;;;;;;4966106;28;20198;-71
2023/07/02 01:47:16;;;;;;;6.63;3.50;;;17.30;99.90;;;;;;4982905;28;20205;-71
2023/07/02 01:49:43;;;;;;;4.35;3.00;;;17.10;99.90;;;;;;4967002;28;20209;-71
2023/07/02 01:52:10;;;;;;;5.82;3.28;;;17.00;99.90;;;;;;4966199;28;20354;-72
2023/07/02 01:54:38;;;;;;;4.13;2.80;;;16.90;99.90;;;;;;4964920;28;20228;-71
2023/07/02 01:57:05;;;;;;;6.20;3.30;;;16.90;99.90;;;;;;4968749;28;20218;-72
2023/07/02 01:59:32;;;;;;;7.00;2.65;;;16.80;99.90;;;;;;4963834;28;20202;-69
2023/07/02 19:07:20;;;;;;;6.20;3.05;;;20.40;59.10;;;;;;4957978;28;20224;-67
2023/07/02 19:09:48;;;;;;;7.78;2.90;;;20.30;58.30;;;;;;4976893;28;20205;-61
2023/07/02 19:12:15;;;;;;;4.82;2.80;;;20.30;59.60;;;;;;4967165;28;20205;-62
2023/07/02 19:14:42;;;;;;;4.50;2.58;;;20.30;58.20;;;;;;4981441;28;20209;-62
2023/07/02 19:17:11;;;;;;;6.18;2.92;;;20.30;58.50;;;;;;4983634;28;20217;-61
2023/07/02 19:19:41;;;;;;;7.13;3.20;;;20.30;59.80;;;;;;4982416;28;20202;-61
2023/07/02 19:22:13;;;;;;;9.90;3.30;;;20.30;60.30;;;;;;4962508;28;20216;-63
2023/07/02 19:24:40;;;;;;;5.22;2.75;;;20.30;59.90;;;;;;4983882;28;20193;-60
2023/07/02 19:27:10;;;;;;;5.53;2.60;;;20.30;59.50;;;;;;4971355;28;20272;-62
2023/07/02 19:29:37;;;;;;;6.18;2.85;;;20.30;60.50;;;;;;4963416;28;20202;-61
2023/07/02 19:32:04;;;;;;;5.57;2.80;;;20.20;60.10;;;;;;4983443;28;20189;-61
2023/07/02 19:34:31;;;;;;;8.60;2.90;;;20.10;61.10;;;;;;4981631;28;20342;-61
2023/07/02 19:36:59;;;;;;;6.18;2.60;;;20.10;59.80;;;;;;4983140;28;20210;-63
2023/07/02 19:39:26;;;;;;;6.95;2.53;;;20.10;58.90;;;;;;4967372;28;20201;-63
2023/07/02 19:41:53;;;;;;;6.18;2.50;;;20.00;62.90;;;;;;4983973;28;20288;-61
2023/07/02 19:44:20;;;;;;;4.72;2.47;;;19.90;59.40;;;;;;4982730;28;20227;-60
2023/07/02 19:46:47;;;;;;;7.85;3.30;;;19.90;61.10;;;;;;4983353;28;20198;-61
2023/07/02 19:49:16;;;;;;;7.97;2.80;;;19.80;60.50;;;;;;4983294;28;20197;-61
2023/07/02 19:51:49;;;;;;;9.90;2.97;;;19.80;62.50;;;;;;4983484;28;20695;-62
2023/07/02 19:54:18;;;;;;;5.47;3.05;;;19.60;63.50;;;;;;4982325;28;20680;-62
2023/07/02 19:56:48;;;;;;;5.60;2.45;;;19.50;62.80;;;;;;4982342;28;20222;-60
2023/07/02 19:59:16;;;;;;;8.68;3.03;;;19.50;61.70;;;;;;4964952;28;20251;-62
2023/07/02 20:01:43;;;;;;;8.10;2.92;;;19.50;60.60;;;;;;4984732;28;20693;-61
2023/07/02 20:04:20;;;;;;;10.73;2.78;;;19.40;62.50;;;;;;4983255;28;20298;-61
2023/07/02 20:06:48;;;;;;;9.65;3.10;;;19.50;62.10;;;;;;4987649;28;20229;-61
2023/07/02 20:09:16;;;;;;;5.65;2.58;;;19.50;62.20;;;;;;4967708;28;20241;-64
2023/07/02 20:11:43;;;;;;;9.48;2.40;;;19.50;63.00;;;;;;4987036;28;20212;-60
2023/07/02 20:14:10;;;;;;;6.65;2.50;;;19.40;63.80;;;;;;4983755;28;20346;-63
2023/07/02 20:16:37;;;;;;;8.13;3.03;;;19.40;64.00;;;;;;4980894;28;20295;-60
2023/07/02 20:19:04;;;;;;;4.35;2.42;;;19.40;62.30;;;;;;4982188;28;20216;-60
2023/07/02 20:21:31;;;;;;;4.80;2.55;;;19.40;62.30;;;;;;4985210;28;20661;-62
2023/07/02 20:23:58;;;;;;;8.35;2.97;;;19.40;65.10;;;;;;4984567;28;20305;-61
2023/07/02 20:26:33;;;;;;;4.57;3.03;;;19.40;63.50;;;;;;4984151;28;20200;-61
2023/07/02 20:29:01;;;;;;;6.10;2.65;;;19.50;64.00;;;;;;4980730;28;20209;-66
2023/07/02 20:31:28;;;;;;;4.20;2.72;;;19.40;64.00;;;;;;4987213;28;20280;-61
2023/07/02 20:33:55;;;;;;;9.50;3.33;;;19.30;63.10;;;;;;4982976;28;20209;-60
2023/07/02 20:36:22;;;;;;;6.68;2.80;;;19.20;65.00;;;;;;4982739;28;20632;-60
2023/07/02 20:38:50;;;;;;;5.82;3.05;;;19.10;63.90;;;;;;4965738;28;20254;-61
2023/07/02 20:41:17;;;;;;;6.05;2.80;;;19.00;64.20;;;;;;4982484;28;20208;-61
2023/07/02 20:43:47;;;;;;;5.70;2.45;;;18.90;64.20;;;;;;4980008;28;20731;-61
2023/07/02 20:46:14;;;;;;;4.50;2.70;;;18.80;65.70;;;;;;4964532;28;20212;-61
2023/07/02 20:48:43;;;;;;;4.30;2.80;;;18.60;66.40;;;;;;4965535;28;20256;-62
2023/07/02 20:51:10;;;;;;;10.43;2.67;;;18.50;66.80;;;;;;4980720;28;20201;-62
2023/07/02 20:53:37;;;;;;;5.05;3.08;;;18.50;70.10;;;;;;4982108;28;20574;-61
2023/07/02 20:56:04;;;;;;;5.30;2.85;;;18.60;68.10;;;;;;4981818;28;20693;-63
2023/07/02 20:58:32;;;;;;;8.27;3.67;;;18.40;68.30;;;;;;4978933;28;20997;-61
2023/07/02 21:01:06;;;;;;;8.95;2.90;;;18.00;68.40;;;;;;4978970;28;20209;-61
2023/07/02 21:03:34;;;;;;;5.22;2.53;;;17.80;68.80;;;;;;4984419;28;20304;-61
2023/07/02 21:06:09;;;;;;;9.38;3.70;;;17.90;71.10;;;;;;4978568;28;20233;-61
2023/07/02 21:08:36;;;;;;;9.02;5.28;;;17.80;71.20;;;;;;4980733;28;20206;-61
2023/07/02 21:11:06;;;;;;;4.80;2.75;;;18.00;73.10;;;;;;4983050;28;20680;-61
2023/07/02 21:13:52;;;;;;;7.45;2.90;;;18.00;71.90;;;;;;4985107;28;20661;-61
2023/07/02 21:16:19;;;;;;;6.35;3.00;;;17.90;72.10;;;;;;4980557;28;20771;-61
2023/07/02 21:18:46;;;;;;;8.80;2.97;;;18.00;72.90;;;;;;4986597;28;20605;-63
2023/07/02 21:21:14;;;;;;;5.00;2.50;;;18.00;73.80;;;;;;4985979;28;20642;-62
2023/07/02 21:23:41;;;;;;;5.28;2.45;;;17.60;73.40;;;;;;4967808;28;20202;-59
2023/07/02 21:26:10;;;;;;;7.35;2.80;;;17.50;73.00;;;;;;4984117;28;20190;-60
2023/07/02 21:28:38;;;;;;;5.40;2.35;;;17.50;75.40;;;;;;4975319;28;20268;-60
2023/07/02 21:31:06;;;;;;;6.93;2.95;;;17.60;76.80;;;;;;4968867;28;20815;-60
2023/07/02 21:33:33;;;;;;;7.78;3.33;;;17.70;75.00;;;;;;4985074;28;20209;-60
2023/07/02 21:36:07;;;;;;;10.45;3.00;;;17.90;73.10;;;;;;4983513;28;20574;-60
2023/07/02 21:38:37;;;;;;;6.50;2.55;;;17.90;74.70;;;;;;4985211;28;20536;-61
2023/07/02 21:41:08;;;;;;;5.43;2.80;;;18.10;88.80;;;;;;4985439;28;20667;-63
2023/07/02 21:43:35;;;;;;;11.63;3.20;;;18.10;74.60;;;;;;4972469;28;20206;-64
2023/07/02 21:46:04;;;;;;;5.72;2.75;;;18.00;73.20;;;;;;4985939;28;20197;-60
2023/07/02 21:48:32;;;;;;;6.28;2.88;;;17.90;75.00;;;;;;4975659;28;20767;-61
2023/07/02 21:50:59;;;;;;;6.50;2.90;;;17.90;74.60;;;;;;4984980;28;20554;-61
2023/07/02 21:53:27;;;;;;;7.13;3.15;;;17.80;73.60;;;;;;4985401;28;20223;-61
2023/07/02 21:55:55;;;;;;;7.80;3.15;;;17.60;76.80;;;;;;4967421;28;20197;-62
2023/07/02 21:58:22;;;;;;;4.45;2.75;;;17.40;75.90;;;;;;4975067;28;20201;-60
2023/07/02 22:00:49;;;;;;;4.18;2.30;;;17.20;95.00;;;;;;4987350;28;20194;-61
2023/07/02 22:03:16;;;;;;;5.85;2.40;;;17.20;77.30;;;;;;4986794;28;20224;-61
2023/07/02 22:05:49;;;;;;;10.15;2.80;;;17.20;77.90;;;;;;4977354;28;20225;-61
2023/07/02 22:08:16;;;;;;;6.65;2.83;;;17.30;78.20;;;;;;4987391;28;20205;-61
2023/07/02 22:10:43;;;;;;;3.83;2.50;;;17.20;97.10;;;;;;4985627;28;20232;-60
2023/07/02 22:13:10;;;;;;;5.32;2.45;;;16.90;78.60;;;;;;4988296;28;20590;-60
2023/07/02 22:15:37;;;;;;;6.72;3.10;;;16.90;81.00;;;;;;4989243;28;20256;-60
2023/07/02 22:18:04;;;;;;;6.55;3.38;;;16.90;80.20;;;;;;4988292;28;20224;-61
2023/07/02 22:20:33;;;;;;;8.68;3.03;;;16.90;79.60;;;;;;4986565;28;20198;-60
2023/07/02 22:23:01;;;;;;;6.22;2.97;;;17.00;81.20;;;;;;4977262;28;20537;-59
2023/07/02 22:25:28;;;;;;;5.63;3.30;;;17.00;80.90;;;;;;4967667;28;20287;-59
2023/07/02 22:27:56;;;;;;;10.10;3.90;;;17.10;80.10;;;;;;4983861;28;20693;-60
2023/07/02 22:30:23;;;;;;;7.57;3.47;;;17.10;82.60;;;;;;4987669;28;20197;-59
2023/07/02 22:32:50;;;;;;;9.48;2.85;;;17.20;81.80;;;;;;4970623;28;20198;-60
2023/07/02 22:35:18;;;;;;;7.35;3.83;;;17.20;84.40;;;;;;4988994;28;20205;-59
2023/07/02 22:37:46;;;;;;;6.35;3.00;;;17.30;81.50;;;;;;4970935;28;20218;-60
2023/07/02 22:40:15;;;;;;;8.25;3.10;;;17.40;81.70;;;;;;4985054;28;20244;-60
2023/07/02 22:42:44;;;;;;;7.30;2.85;;;17.40;82.50;;;;;;4986755;28;20189;-60
2023/07/02 22:45:13;;;;;;;8.00;3.13;;;17.40;81.50;;;;;;4981950;28;20202;-62
2023/07/02 22:47:41;;;;;;;6.63;3.10;;;17.30;83.30;;;;;;4965028;28;20620;-61
2023/07/02 22:50:11;;;;;;;5.38;2.75;;;17.30;82.10;;;;;;4979743;28;20263;-62
2023/07/02 22:52:38;;;;;;;10.52;3.83;;;17.40;80.90;;;;;;4983794;28;20716;-60
2023/07/02 22:55:09;;;;;;;7.55;2.97;;;17.30;80.70;;;;;;4987103;28;20280;-60
2023/07/02 22:57:37;;;;;;;8.95;2.92;;;17.20;82.40;;;;;;4984664;28;20292;-60
2023/07/02 23:00:12;;;;;;;6.10;3.03;;;17.20;81.80;;;;;;4985434;28;20202;-60
2023/07/02 23:02:46;;;;;;;5.40;3.13;;;17.00;89.60;;;;;;4987522;28;20207;-60
2023/07/02 23:05:16;;;;;;;9.25;3.20;;;16.90;82.90;;;;;;4988329;28;20227;-59
2023/07/02 23:07:45;;;;;;;7.53;3.35;;;17.00;83.00;;;;;;4985142;28;20285;-61
2023/07/02 23:10:15;;;;;;;5.85;2.75;;;17.10;83.50;;;;;;4968193;28;20222;-61
2023/07/02 23:12:45;;;;;;;5.35;2.97;;;17.30;84.60;;;;;;4979810;28;20295;-58
2023/07/02 23:15:14;;;;;;;11.07;3.40;;;17.30;83.50;;;;;;4966910;28;20231;-61
2023/07/02 23:17:53;;;;;;;6.57;3.47;;;17.30;86.00;;;;;;4961489;28;20250;-61
2023/07/02 23:20:21;;;;;;;6.38;2.80;;;17.30;84.00;;;;;;4978538;28;20902;-58
2023/07/02 23:22:49;;;;;;;10.65;3.13;;;17.30;84.30;;;;;;4969776;28;20391;-61
2023/07/02 23:25:22;;;;;;;9.93;3.22;;;17.20;84.20;;;;;;4963120;28;20269;-61
2023/07/02 23:28:02;;;;;;;5.18;2.72;;;17.10;84.30;;;;;;4959053;28;20202;-64
2023/07/02 23:30:35;;;;;;;9.63;3.55;;;17.10;84.70;;;;;;4964784;28;20225;-61
2023/07/02 23:33:09;;;;;;;7.03;2.97;;;17.20;85.50;;;;;;4965328;28;20265;-60
2023/07/02 23:35:37;;;;;;;12.02;3.22;;;17.20;86.40;;;;;;4965233;28;20201;-60
2023/07/02 23:38:06;;;;;;;6.75;2.85;;;17.10;84.60;;;;;;4958156;28;20678;-65
2023/07/02 23:40:34;;;;;;;9.07;3.47;;;17.00;86.30;;;;;;4965391;28;20202;-60
2023/07/02 23:43:02;;;;;;;6.50;3.05;;;17.00;85.60;;;;;;4982241;28;20200;-60
2023/07/02 23:45:30;;;;;;;5.47;3.63;;;17.00;86.30;;;;;;4968481;28;20205;-60
2023/07/02 23:47:57;;;;;;;6.72;3.05;;;17.10;85.30;;;;;;4968377;28;20205;-60
2023/07/02 23:50:26;;;;;;;10.45;3.72;;;17.10;87.10;;;;;;4969059;28;20211;-61
2023/07/02 23:52:53;;;;;;;10.95;3.92;;;17.00;87.30;;;;;;4960267;28;20210;-59
2023/07/02 23:55:20;;;;;;;8.02;3.25;;;17.00;88.60;;;;;;4968303;28;20193;-60
2023/07/02 23:57:47;;;;;;;7.55;3.63;;;16.90;87.90;;;;;;4966946;28;20764;-59
